Time,TemperatureF,DewpointF,PressureIn,WindDirection,WindDirectionDegrees,WindSpeedMPH,WindSpeedGustMPH,Humidity,HourlyPrecipIn,Conditions,Clouds,dailyrainin,SoftwareType,DateUTC
2013-10-30 00:01:00,28.4,9.8,30.53,South,178,0.0,0.0,45,0.00,,,0.00,WeatherCatV1.23B14,2013-10-30 07:01:00,
2013-10-30 00:06:00,28.2,9.6,30.53,South,178,0.0,0.0,45,0.00,,,0.00,WeatherCatV1.23B14,2013-10-30 07:06:00,
2013-10-30 00:11:00,27.9,9.8,30.53,South,178,0.0,0.0,46,0.00,,,0.00,WeatherCatV1.23B14,2013-10-30 07:11:00,
2013-10-30 00:12:00,27.9,9.8,30.53,South,178,0.0,0.0,46,0.00,,,0.00,WeatherCatV1.23B14,2013-10-30 07:12:00,
2013-10-30 00:17:00,27.9,9.8,30.50,South,178,0.0,0.0,46,0.00,,,0.00,WeatherCatV1.23B14,2013-10-30 07:17:00,
2013-10-30 00:22:00,28.0,10.0,30.50,South,178,0.0,0.0,46,0.00,,,0.00,WeatherCatV1.23B14,2013-10-30 07:22:00,
2013-10-30 00:27:00,28.0,10.0,30.50,South,178,0.0,0.0,46,0.00,,,0.00,WeatherCatV1.23B14,2013-10-30 07:27:00,
2013-10-30 00:32:00,27.9,9.8,30.53,South,178,0.0,0.0,46,0.00,,,0.00,WeatherCatV1.23B14,2013-10-30 07:32:00,
2013-10-30 00:37:00,27.7,9.6,30.53,South,178,0.0,0.0,46,0.00,,,0.00,WeatherCatV1.23B14,2013-10-30 07:37:00,
2013-10-30 00:42:00,27.3,9.8,30.53,South,178,0.0,0.0,47,0.00,,,0.00,WeatherCatV1.23B14,2013-10-30 07:42:00,
2013-10-30 00:47:00,26.8,9.8,30.53,South,178,0.0,0.0,48,0.00,,,0.00,WeatherCatV1.23B14,2013-10-30 07:47:00,
2013-10-30 00:52:00,26.1,10.0,30.53,South,178,0.0,0.0,50,0.00,,,0.00,WeatherCatV1.23B14,2013-10-30 07:52:00,
2013-10-30 00:57:00,25.5,9.5,30.53,South,178,0.0,0.0,50,0.00,,,0.00,WeatherCatV1.23B14,2013-10-30 07:57:00,
2013-10-30 01:02:00,25.3,9.3,30.53,South,178,0.0,0.0,50,0.00,,,0.00,WeatherCatV1.23B14,2013-10-30 08:02:00,
2013-10-30 01:07:00,25.3,9.8,30.53,South,178,0.0,0.0,51,0.00,,,0.00,WeatherCatV1.23B14,2013-10-30 08:07:00,
2013-10-30 01:12:00,25.3,9.8,30.53,South,178,0.0,0.0,51,0.00,,,0.00,WeatherCatV1.23B14,2013-10-30 08:12:00,
2013-10-30 01:17:00,25.5,10.4,30.53,South,178,0.0,0.0,52,0.00,,,0.00,WeatherCatV1.23B14,2013-10-30 08:17:00,
2013-10-30 01:22:00,25.5,10.4,30.53,South,178,0.0,0.0,52,0.00,,,0.00,WeatherCatV1.23B14,2013-10-30 08:22:00,
2013-10-30 01:27:00,25.3,10.2,30.53,South,178,0.0,0.0,52,0.00,,,0.00,WeatherCatV1.23B14,2013-10-30 08:27:00,
2013-10-30 01:32:00,25.3,10.2,30.53,South,178,0.0,0.0,52,0.00,,,0.00,WeatherCatV1.23B14,2013-10-30 08:32:00,
2013-10-30 01:37:00,25.2,10.5,30.53,South,178,0.0,0.0,53,0.00,,,0.00,WeatherCatV1.23B14,2013-10-30 08:37:00,
2013-10-30 01:42:00,25.3,10.6,30.53,South,178,0.0,0.0,53,0.00,,,0.00,WeatherCatV1.23B14,2013-10-30 08:42:00,
2013-10-30 01:47:00,25.2,10.9,30.53,South,178,0.0,0.0,54,0.00,,,0.00,WeatherCatV1.23B14,2013-10-30 08:47:00,
2013-10-30 01:52:00,25.0,10.7,30.53,South,178,0.0,0.0,54,0.00,,,0.00,WeatherCatV1.23B14,2013-10-30 08:52:00,
2013-10-30 01:57:00,25.0,10.7,30.53,South,178,0.0,0.0,54,0.00,,,0.00,WeatherCatV1.23B14,2013-10-30 08:57:00,
2013-10-30 02:02:00,25.0,11.1,30.53,South,178,0.0,0.0,55,0.00,,,0.00,WeatherCatV1.23B14,2013-10-30 09:02:00,
2013-10-30 02:07:00,25.0,11.1,30.53,South,178,0.0,0.0,55,0.00,,,0.00,WeatherCatV1.23B14,2013-10-30 09:07:00,
2013-10-30 02:12:00,25.2,11.3,30.53,South,178,0.0,0.0,55,0.00,,,0.00,WeatherCatV1.23B14,2013-10-30 09:12:00,
2013-10-30 02:17:00,25.3,11.9,30.53,South,178,0.0,0.0,56,0.00,,,0.00,WeatherCatV1.23B14,2013-10-30 09:17:00,
2013-10-30 02:22:00,25.3,11.9,30.53,South,178,0.0,0.0,56,0.00,,,0.00,WeatherCatV1.23B14,2013-10-30 09:22:00,
2013-10-30 02:27:00,25.3,11.9,30.53,South,178,0.0,0.0,56,0.00,,,0.00,WeatherCatV1.23B14,2013-10-30 09:27:00,
2013-10-30 02:32:00,25.3,11.9,30.53,South,178,0.0,0.0,56,0.00,,,0.00,WeatherCatV1.23B14,2013-10-30 09:32:00,
2013-10-30 02:37:00,25.3,11.9,30.53,South,178,0.0,0.0,56,0.00,,,0.00,WeatherCatV1.23B14,2013-10-30 09:37:00,
2013-10-30 02:42:00,25.3,11.9,30.53,South,178,0.0,0.0,56,0.00,,,0.00,WeatherCatV1.23B14,2013-10-30 09:42:00,
2013-10-30 02:47:00,25.2,11.7,30.53,South,178,0.0,0.0,56,0.00,,,0.00,WeatherCatV1.23B14,2013-10-30 09:47:00,
2013-10-30 02:52:00,25.2,11.7,30.53,South,178,0.0,0.0,56,0.00,,,0.00,WeatherCatV1.23B14,2013-10-30 09:52:00,
2013-10-30 02:57:00,24.8,11.4,30.53,South,178,0.0,0.0,56,0.00,,,0.00,WeatherCatV1.23B14,2013-10-30 09:57:00,
2013-10-30 03:02:00,24.8,12.1,30.53,South,178,0.0,0.0,58,0.00,,,0.00,WeatherCatV1.23B14,2013-10-30 10:02:00,
2013-10-30 03:07:00,24.4,11.8,30.56,South,178,0.0,0.0,58,0.00,,,0.00,WeatherCatV1.23B14,2013-10-30 10:07:00,
2013-10-30 03:12:00,24.1,11.1,30.56,South,178,0.0,0.0,57,0.00,,,0.00,WeatherCatV1.23B14,2013-10-30 10:12:00,
2013-10-30 03:17:00,23.7,10.7,30.56,South,178,0.0,0.0,57,0.00,,,0.00,WeatherCatV1.23B14,2013-10-30 10:17:00,
2013-10-30 03:22:00,23.7,11.1,30.56,South,178,0.0,0.0,58,0.00,,,0.00,WeatherCatV1.23B14,2013-10-30 10:22:00,
2013-10-30 03:27:00,23.7,11.1,30.56,South,178,0.0,0.0,58,0.00,,,0.00,WeatherCatV1.23B14,2013-10-30 10:27:00,
2013-10-30 03:32:00,23.7,11.5,30.53,South,178,0.0,0.0,59,0.00,,,0.00,WeatherCatV1.23B14,2013-10-30 10:32:00,
2013-10-30 03:37:00,23.9,12.1,30.53,South,178,0.0,0.0,60,0.00,,,0.00,WeatherCatV1.23B14,2013-10-30 10:37:00,
2013-10-30 03:42:00,24.3,12.8,30.53,South,178,0.0,0.0,61,0.00,,,0.00,WeatherCatV1.23B14,2013-10-30 10:42:00,
2013-10-30 03:47:00,24.3,12.8,30.53,South,178,0.0,0.0,61,0.00,,,0.00,WeatherCatV1.23B14,2013-10-30 10:47:00,
2013-10-30 03:52:00,24.3,12.8,30.53,South,178,0.0,0.0,61,0.00,,,0.00,WeatherCatV1.23B14,2013-10-30 10:52:00,
2013-10-30 03:57:00,24.1,12.2,30.53,South,178,0.0,0.0,60,0.00,,,0.00,WeatherCatV1.23B14,2013-10-30 10:57:00,
2013-10-30 04:02:00,23.9,12.8,30.53,South,178,0.0,0.0,62,0.00,,,0.00,WeatherCatV1.23B14,2013-10-30 11:02:00,
2013-10-30 04:07:00,23.5,12.8,30.53,South,178,0.0,0.0,63,0.00,,,0.00,WeatherCatV1.23B14,2013-10-30 11:07:00,
2013-10-30 04:12:00,23.2,12.1,30.53,South,178,0.0,0.0,62,0.00,,,0.00,WeatherCatV1.23B14,2013-10-30 11:12:00,
2013-10-30 04:17:00,23.0,12.3,30.53,South,178,0.0,0.0,63,0.00,,,0.00,WeatherCatV1.23B14,2013-10-30 11:17:00,
2013-10-30 04:22:00,23.0,12.3,30.53,South,178,0.0,0.0,63,0.00,,,0.00,WeatherCatV1.23B14,2013-10-30 11:22:00,
2013-10-30 04:27:00,22.8,11.8,30.53,South,178,0.0,0.0,62,0.00,,,0.00,WeatherCatV1.23B14,2013-10-30 11:27:00,
2013-10-30 04:32:00,22.8,11.8,30.53,South,178,0.0,0.0,62,0.00,,,0.00,WeatherCatV1.23B14,2013-10-30 11:32:00,
2013-10-30 04:37:00,22.6,11.6,30.53,South,178,0.0,0.0,62,0.00,,,0.00,WeatherCatV1.23B14,2013-10-30 11:37:00,
2013-10-30 04:42:00,22.8,12.5,30.53,South,178,0.0,0.0,64,0.00,,,0.00,WeatherCatV1.23B14,2013-10-30 11:42:00,
2013-10-30 04:47:00,22.8,13.2,30.53,South,178,0.0,0.0,66,0.00,,,0.00,WeatherCatV1.23B14,2013-10-30 11:47:00,
2013-10-30 04:52:00,22.6,13.0,30.53,South,178,0.0,0.0,66,0.00,,,0.00,WeatherCatV1.23B14,2013-10-30 11:52:00,
2013-10-30 04:57:00,22.6,13.0,30.53,South,178,0.0,0.0,66,0.00,,,0.00,WeatherCatV1.23B14,2013-10-30 11:57:00,
2013-10-30 05:02:00,22.3,12.3,30.53,South,178,0.0,0.0,65,0.00,,,0.00,WeatherCatV1.23B14,2013-10-30 12:02:00,
2013-10-30 05:07:00,22.3,12.3,30.53,South,178,0.0,0.0,65,0.00,,,0.00,WeatherCatV1.23B14,2013-10-30 12:07:00,
2013-10-30 05:12:00,22.1,12.5,30.53,South,178,0.0,0.0,66,0.00,,,0.00,WeatherCatV1.23B14,2013-10-30 12:12:00,
2013-10-30 05:17:00,21.9,12.7,30.56,South,178,0.0,0.0,67,0.00,,,0.00,WeatherCatV1.23B14,2013-10-30 12:17:00,
2013-10-30 05:22:00,22.1,12.8,30.56,South,178,0.0,0.0,67,0.00,,,0.00,WeatherCatV1.23B14,2013-10-30 12:22:00,
2013-10-30 05:27:00,22.1,13.2,30.56,South,178,0.0,0.0,68,0.00,,,0.00,WeatherCatV1.23B14,2013-10-30 12:27:00,
2013-10-30 05:32:00,21.9,12.7,30.56,South,178,0.0,0.0,67,0.00,,,0.00,WeatherCatV1.23B14,2013-10-30 12:32:00,
2013-10-30 05:37:00,21.7,12.8,30.56,South,178,0.0,0.0,68,0.00,,,0.00,WeatherCatV1.23B14,2013-10-30 12:37:00,
2013-10-30 05:42:00,21.9,13.0,30.56,South,178,0.0,0.0,68,0.00,,,0.00,WeatherCatV1.23B14,2013-10-30 12:42:00,
2013-10-30 05:47:00,21.9,13.0,30.53,South,178,0.0,0.0,68,0.00,,,0.00,WeatherCatV1.23B14,2013-10-30 12:47:00,
2013-10-30 05:52:00,21.7,12.8,30.53,South,178,0.0,0.0,68,0.00,,,0.00,WeatherCatV1.23B14,2013-10-30 12:52:00,
2013-10-30 05:57:00,21.7,12.8,30.53,South,178,0.0,0.0,68,0.00,,,0.00,WeatherCatV1.23B14,2013-10-30 12:57:00,
2013-10-30 06:02:00,21.6,12.7,30.56,South,178,0.0,0.0,68,0.00,,,0.00,WeatherCatV1.23B14,2013-10-30 13:02:00,
2013-10-30 06:07:00,21.6,12.7,30.56,South,178,0.0,0.0,68,0.00,,,0.00,WeatherCatV1.23B14,2013-10-30 13:07:00,
2013-10-30 06:12:00,21.6,12.7,30.56,South,178,0.0,0.0,68,0.00,,,0.00,WeatherCatV1.23B14,2013-10-30 13:12:00,
2013-10-30 06:17:00,21.7,12.8,30.53,South,178,0.0,0.0,68,0.00,,,0.00,WeatherCatV1.23B14,2013-10-30 13:17:00,
2013-10-30 06:22:00,21.9,13.3,30.53,South,178,0.0,0.0,69,0.00,,,0.00,WeatherCatV1.23B14,2013-10-30 13:22:00,
2013-10-30 06:27:00,21.9,13.3,30.53,South,178,0.0,0.0,69,0.00,,,0.00,WeatherCatV1.23B14,2013-10-30 13:27:00,
2013-10-30 06:32:00,22.1,13.5,30.56,South,178,0.0,0.0,69,0.00,,,0.00,WeatherCatV1.23B14,2013-10-30 13:32:00,
2013-10-30 06:37:00,22.1,13.8,30.56,South,178,0.0,0.0,70,0.00,,,0.00,WeatherCatV1.23B14,2013-10-30 13:37:00,
2013-10-30 06:42:00,22.3,14.0,30.56,South,178,0.0,0.0,70,0.00,,,0.00,WeatherCatV1.23B14,2013-10-30 13:42:00,
2013-10-30 06:47:00,22.1,13.8,30.56,South,178,0.0,0.0,70,0.00,,,0.00,WeatherCatV1.23B14,2013-10-30 13:47:00,
2013-10-30 06:52:00,22.5,14.5,30.56,South,178,0.0,0.0,71,0.00,,,0.00,WeatherCatV1.23B14,2013-10-30 13:52:00,
2013-10-30 06:57:00,22.3,14.0,30.56,South,178,0.0,0.0,70,0.00,,,0.00,WeatherCatV1.23B14,2013-10-30 13:57:00,
2013-10-30 07:02:00,22.3,14.0,30.53,South,178,0.0,0.0,70,0.00,,,0.00,WeatherCatV1.23B14,2013-10-30 14:02:00,
2013-10-30 07:07:00,22.5,14.2,30.53,South,178,0.0,0.0,70,0.00,,,0.00,WeatherCatV1.23B14,2013-10-30 14:07:00,
2013-10-30 07:12:00,22.5,14.2,30.53,South,178,0.0,0.0,70,0.00,,,0.00,WeatherCatV1.23B14,2013-10-30 14:12:00,
2013-10-30 07:17:00,22.3,14.0,30.53,South,178,0.0,0.0,70,0.00,,,0.00,WeatherCatV1.23B14,2013-10-30 14:17:00,
2013-10-30 07:22:00,22.3,14.0,30.53,South,178,0.0,0.0,70,0.00,,,0.00,WeatherCatV1.23B14,2013-10-30 14:22:00,
2013-10-30 07:27:00,21.9,13.3,30.53,South,178,0.0,0.0,69,0.00,,,0.00,WeatherCatV1.23B14,2013-10-30 14:27:00,
2013-10-30 07:32:00,21.9,13.7,30.56,South,178,0.0,0.0,70,0.00,,,0.00,WeatherCatV1.23B14,2013-10-30 14:32:00,
2013-10-30 07:37:00,21.6,13.0,30.56,South,178,0.0,0.0,69,0.00,,,0.00,WeatherCatV1.23B14,2013-10-30 14:37:00,
2013-10-30 07:42:00,21.4,12.8,30.56,South,178,0.0,0.0,69,0.00,,,0.00,WeatherCatV1.23B14,2013-10-30 14:42:00,
2013-10-30 07:47:00,21.4,13.1,30.56,South,178,0.0,0.0,70,0.00,,,0.00,WeatherCatV1.23B14,2013-10-30 14:47:00,
2013-10-30 07:52:00,21.7,13.8,30.56,South,178,0.0,0.0,71,0.00,,,0.00,WeatherCatV1.23B14,2013-10-30 14:52:00,
2013-10-30 07:57:00,21.9,14.0,30.56,South,178,0.0,0.0,71,0.00,,,0.00,WeatherCatV1.23B14,2013-10-30 14:57:00,
2013-10-30 08:02:00,21.9,13.7,30.56,South,178,0.0,0.0,70,0.00,,,0.00,WeatherCatV1.23B14,2013-10-30 15:02:00,
2013-10-30 08:07:00,21.6,13.3,30.56,South,178,0.0,0.0,70,0.00,,,0.00,WeatherCatV1.23B14,2013-10-30 15:07:00,
2013-10-30 08:12:00,21.6,13.3,30.56,South,178,0.0,0.0,70,0.00,,,0.00,WeatherCatV1.23B14,2013-10-30 15:12:00,
2013-10-30 08:17:00,21.9,14.0,30.56,South,178,0.0,0.0,71,0.00,,,0.00,WeatherCatV1.23B14,2013-10-30 15:17:00,
2013-10-30 08:22:00,21.9,14.3,30.56,South,178,0.0,0.0,72,0.00,,,0.00,WeatherCatV1.23B14,2013-10-30 15:22:00,
2013-10-30 08:27:00,21.9,14.0,30.56,South,178,0.0,0.0,71,0.00,,,0.00,WeatherCatV1.23B14,2013-10-30 15:27:00,
2013-10-30 08:32:00,21.9,14.0,30.59,South,178,0.0,0.0,71,0.00,,,0.00,WeatherCatV1.23B14,2013-10-30 15:32:00,
2013-10-30 08:37:00,21.9,14.3,30.59,South,178,0.0,0.0,72,0.00,,,0.00,WeatherCatV1.23B14,2013-10-30 15:37:00,
2013-10-30 08:42:00,22.6,15.3,30.59,South,178,0.0,0.0,73,0.00,,,0.00,WeatherCatV1.23B14,2013-10-30 15:42:00,
2013-10-30 08:48:00,23.0,15.7,30.59,South,178,0.0,0.0,73,0.00,,,0.00,WeatherCatV1.23B14,2013-10-30 15:48:00,
2013-10-30 08:53:00,23.5,16.2,30.59,South,178,0.0,0.0,73,0.00,,,0.00,WeatherCatV1.23B14,2013-10-30 15:53:00,
2013-10-30 08:58:00,24.1,16.7,30.59,South,178,0.0,0.0,73,0.00,,,0.00,WeatherCatV1.23B14,2013-10-30 15:58:00,
2013-10-30 09:03:00,24.4,17.4,30.59,South,178,0.0,0.0,74,0.00,,,0.00,WeatherCatV1.23B14,2013-10-30 16:03:00,
2013-10-30 09:08:00,25.0,16.3,30.59,South,178,0.0,0.0,69,0.00,,,0.00,WeatherCatV1.23B14,2013-10-30 16:08:00,
2013-10-30 09:13:00,25.3,14.9,30.59,South,178,0.0,0.0,64,0.00,,,0.00,WeatherCatV1.23B14,2013-10-30 16:13:00,
2013-10-30 09:18:00,26.1,15.2,30.59,South,178,0.0,0.0,63,0.00,,,0.00,WeatherCatV1.23B14,2013-10-30 16:18:00,
2013-10-30 09:23:00,26.8,15.2,30.59,South,178,0.0,0.0,61,0.00,,,0.00,WeatherCatV1.23B14,2013-10-30 16:23:00,
2013-10-30 09:28:00,27.5,14.3,30.59,South,178,0.0,0.0,57,0.00,,,0.00,WeatherCatV1.23B14,2013-10-30 16:28:00,
2013-10-30 09:33:00,28.0,14.0,30.59,South,178,0.0,0.0,55,0.00,,,0.00,WeatherCatV1.23B14,2013-10-30 16:33:00,
2013-10-30 09:38:00,28.4,14.3,30.59,South,178,0.0,0.0,55,0.00,,,0.00,WeatherCatV1.23B14,2013-10-30 16:38:00,
2013-10-30 09:43:00,28.2,13.7,30.59,South,178,0.0,0.0,54,0.00,,,0.00,WeatherCatV1.23B14,2013-10-30 16:43:00,
2013-10-30 09:48:00,27.7,13.2,30.59,South,178,0.0,0.0,54,0.00,,,0.00,WeatherCatV1.23B14,2013-10-30 16:48:00,
2013-10-30 09:53:00,27.3,12.9,30.59,South,178,0.0,0.0,54,0.00,,,0.00,WeatherCatV1.23B14,2013-10-30 16:53:00,
2013-10-30 09:58:00,27.1,13.1,30.59,South,178,0.0,0.0,55,0.00,,,0.00,WeatherCatV1.23B14,2013-10-30 16:58:00,
2013-10-30 10:03:00,27.3,12.9,30.59,South,178,0.0,0.0,54,0.00,,,0.00,WeatherCatV1.23B14,2013-10-30 17:03:00,
2013-10-30 10:08:00,27.5,13.1,30.59,South,178,0.0,0.0,54,0.00,,,0.00,WeatherCatV1.23B14,2013-10-30 17:08:00,
2013-10-30 10:13:00,27.9,13.4,30.59,South,178,0.0,0.0,54,0.00,,,0.00,WeatherCatV1.23B14,2013-10-30 17:13:00,
2013-10-30 10:18:00,28.2,13.7,30.59,South,178,0.0,0.0,54,0.00,,,0.00,WeatherCatV1.23B14,2013-10-30 17:18:00,
2013-10-30 10:23:00,28.6,14.1,30.59,South,178,0.0,0.0,54,0.00,,,0.00,WeatherCatV1.23B14,2013-10-30 17:23:00,
2013-10-30 10:28:00,29.1,14.1,30.59,South,178,0.0,0.0,53,0.00,,,0.00,WeatherCatV1.23B14,2013-10-30 17:28:00,
2013-10-30 10:33:00,29.5,14.1,30.59,South,178,0.0,0.0,52,0.00,,,0.00,WeatherCatV1.23B14,2013-10-30 17:33:00,
2013-10-30 10:38:00,30.0,14.1,30.59,South,178,0.0,0.0,51,0.00,,,0.00,WeatherCatV1.23B14,2013-10-30 17:38:00,
2013-10-30 10:43:00,30.6,13.2,30.59,South,178,0.0,0.0,48,0.00,,,0.00,WeatherCatV1.23B14,2013-10-30 17:43:00,
2013-10-30 10:48:00,31.1,13.7,30.59,South,178,0.0,0.0,48,0.00,,,0.00,WeatherCatV1.23B14,2013-10-30 17:48:00,
2013-10-30 10:53:00,32.0,14.1,30.59,NE,44,0.0,0.0,47,0.00,,,0.00,WeatherCatV1.23B14,2013-10-30 17:53:00,
2013-10-30 10:58:00,32.5,14.1,30.59,NE,43,0.0,3.1,46,0.00,,,0.00,WeatherCatV1.23B14,2013-10-30 17:58:00,
2013-10-30 11:03:00,33.8,14.2,30.59,NE,43,0.0,0.0,44,0.00,,,0.00,WeatherCatV1.23B14,2013-10-30 18:03:00,
2013-10-30 11:08:00,34.5,13.8,30.59,NNE,33,0.0,4.0,42,0.00,,,0.00,WeatherCatV1.23B14,2013-10-30 18:08:00,
2013-10-30 11:13:00,35.2,13.9,30.59,NNE,33,0.0,0.0,41,0.00,,,0.00,WeatherCatV1.23B14,2013-10-30 18:13:00,
2013-10-30 11:18:00,35.8,14.4,30.59,NNE,33,0.0,0.0,41,0.00,,,0.00,WeatherCatV1.23B14,2013-10-30 18:18:00,
2013-10-30 11:23:00,36.1,14.2,30.59,NNE,33,0.0,0.0,40,0.00,,,0.00,WeatherCatV1.23B14,2013-10-30 18:23:00,
2013-10-30 11:28:00,36.5,14.5,30.59,NNE,33,0.0,0.0,40,0.00,,,0.00,WeatherCatV1.23B14,2013-10-30 18:28:00,
2013-10-30 11:33:00,36.7,14.7,30.59,NNE,33,0.0,0.0,40,0.00,,,0.00,WeatherCatV1.23B14,2013-10-30 18:33:00,
2013-10-30 11:38:00,36.7,14.7,30.59,NNE,33,0.0,0.0,40,0.00,,,0.00,WeatherCatV1.23B14,2013-10-30 18:38:00,
2013-10-30 11:43:00,36.7,14.7,30.59,NNE,33,0.0,0.0,40,0.00,,,0.00,WeatherCatV1.23B14,2013-10-30 18:43:00,
2013-10-30 11:48:00,36.7,14.7,30.59,NNE,33,0.0,0.0,40,0.00,,,0.00,WeatherCatV1.23B14,2013-10-30 18:48:00,
2013-10-30 11:53:00,36.7,14.7,30.59,NNE,33,0.0,0.0,40,0.00,,,0.00,WeatherCatV1.23B14,2013-10-30 18:53:00,
2013-10-30 11:58:00,36.7,14.7,30.59,NNE,33,0.0,0.0,40,0.00,,,0.00,WeatherCatV1.23B14,2013-10-30 18:58:00,
2013-10-30 12:03:00,36.7,14.7,30.59,NNE,33,0.0,0.0,40,0.00,,,0.00,WeatherCatV1.23B14,2013-10-30 19:03:00,
2013-10-30 12:08:00,36.9,14.8,30.59,NNE,33,0.0,0.0,40,0.00,,,0.00,WeatherCatV1.23B14,2013-10-30 19:08:00,
2013-10-30 12:13:00,37.4,14.7,30.59,NNE,33,0.0,2.2,39,0.00,,,0.00,WeatherCatV1.23B14,2013-10-30 19:13:00,
2013-10-30 12:18:00,37.9,15.2,30.59,NNE,33,0.0,0.0,39,0.00,,,0.00,WeatherCatV1.23B14,2013-10-30 19:18:00,
2013-10-30 12:23:00,38.3,15.5,30.59,NNE,33,0.0,2.7,39,0.00,,,0.00,WeatherCatV1.23B14,2013-10-30 19:23:00,
2013-10-30 12:28:00,39.2,15.8,30.59,NNE,33,0.0,0.0,38,0.00,,,0.00,WeatherCatV1.23B14,2013-10-30 19:28:00,
2013-10-30 12:33:00,40.3,16.1,30.56,NNE,33,2.2,2.2,37,0.00,,,0.00,WeatherCatV1.23B14,2013-10-30 19:33:00,
2013-10-30 12:38:00,41.0,15.5,30.56,NNE,33,0.0,0.0,35,0.00,,,0.00,WeatherCatV1.23B14,2013-10-30 19:38:00,
2013-10-30 12:43:00,41.9,15.6,30.56,NNE,33,0.0,0.0,34,0.00,,,0.00,WeatherCatV1.23B14,2013-10-30 19:43:00,
2013-10-30 12:48:00,42.8,16.4,30.56,NNE,33,0.0,0.0,34,0.00,,,0.00,WeatherCatV1.23B14,2013-10-30 19:48:00,
2013-10-30 12:53:00,43.9,15.9,30.56,NNE,33,0.0,3.6,32,0.00,,,0.00,WeatherCatV1.23B14,2013-10-30 19:53:00,
2013-10-30 12:58:00,44.2,15.5,30.56,NNE,33,0.0,0.0,31,0.00,,,0.00,WeatherCatV1.23B14,2013-10-30 19:58:00,
2013-10-30 13:03:00,45.3,16.5,30.56,NNE,33,0.0,0.0,31,0.00,,,0.00,WeatherCatV1.23B14,2013-10-30 20:03:00,
2013-10-30 13:08:00,45.9,15.4,30.56,NNE,33,0.0,0.0,29,0.00,,,0.00,WeatherCatV1.23B14,2013-10-30 20:08:00,
2013-10-30 13:13:00,46.0,15.6,30.56,NNE,33,0.0,0.0,29,0.00,,,0.00,WeatherCatV1.23B14,2013-10-30 20:13:00,
2013-10-30 13:18:00,46.6,16.0,30.56,NNE,33,0.0,0.0,29,0.00,,,0.00,WeatherCatV1.23B14,2013-10-30 20:18:00,
2013-10-30 13:23:00,46.9,15.6,30.56,NNE,33,0.0,0.0,28,0.00,,,0.00,WeatherCatV1.23B14,2013-10-30 20:23:00,
2013-10-30 13:28:00,46.9,15.6,30.56,NW,313,0.0,0.0,28,0.00,,,0.00,WeatherCatV1.23B14,2013-10-30 20:28:00,
2013-10-30 13:33:00,47.3,16.7,30.56,NW,310,0.0,0.0,29,0.00,,,0.00,WeatherCatV1.23B14,2013-10-30 20:33:00,
2013-10-30 13:38:00,47.1,15.7,30.56,NW,310,0.0,0.0,28,0.00,,,0.00,WeatherCatV1.23B14,2013-10-30 20:38:00,
2013-10-30 13:43:00,46.9,15.6,30.56,ENE,65,0.0,0.0,28,0.00,,,0.00,WeatherCatV1.23B14,2013-10-30 20:43:00,
2013-10-30 13:48:00,46.8,15.4,30.56,ENE,65,0.0,0.0,28,0.00,,,0.00,WeatherCatV1.23B14,2013-10-30 20:48:00,
2013-10-30 13:53:00,46.6,15.2,30.56,ENE,65,0.0,0.0,28,0.00,,,0.00,WeatherCatV1.23B14,2013-10-30 20:53:00,
2013-10-30 13:58:00,46.6,15.2,30.56,ENE,65,0.0,0.0,28,0.00,,,0.00,WeatherCatV1.23B14,2013-10-30 20:58:00,
2013-10-30 14:03:00,46.9,15.6,30.56,ENE,65,0.0,0.0,28,0.00,,,0.00,WeatherCatV1.23B14,2013-10-30 21:03:00,
2013-10-30 14:08:00,46.9,15.6,30.56,ENE,65,0.0,0.0,28,0.00,,,0.00,WeatherCatV1.23B14,2013-10-30 21:08:00,
2013-10-30 14:13:00,46.8,14.6,30.56,ENE,65,0.0,0.0,27,0.00,,,0.00,WeatherCatV1.23B14,2013-10-30 21:13:00,
2013-10-30 14:18:00,46.6,14.4,30.56,ENE,65,0.0,0.0,27,0.00,,,0.00,WeatherCatV1.23B14,2013-10-30 21:18:00,
2013-10-30 14:23:00,46.6,15.2,30.56,ENE,63,0.0,0.0,28,0.00,,,0.00,WeatherCatV1.23B14,2013-10-30 21:23:00,
2013-10-30 14:28:00,46.4,14.3,30.56,ENE,63,0.0,0.0,27,0.00,,,0.00,WeatherCatV1.23B14,2013-10-30 21:28:00,
2013-10-30 14:33:00,46.4,15.1,30.56,ENE,63,0.0,0.0,28,0.00,,,0.00,WeatherCatV1.23B14,2013-10-30 21:33:00,
2013-10-30 14:38:00,46.2,14.9,30.56,ENE,63,0.0,0.0,28,0.00,,,0.00,WeatherCatV1.23B14,2013-10-30 21:38:00,
2013-10-30 14:43:00,46.4,15.1,30.56,ENE,63,0.0,0.0,28,0.00,,,0.00,WeatherCatV1.23B14,2013-10-30 21:43:00,
2013-10-30 14:48:00,46.2,14.9,30.56,ENE,63,0.0,0.0,28,0.00,,,0.00,WeatherCatV1.23B14,2013-10-30 21:48:00,
2013-10-30 14:53:00,46.4,15.1,30.56,ENE,60,0.0,0.0,28,0.00,,,0.00,WeatherCatV1.23B14,2013-10-30 21:53:00,
2013-10-30 14:58:00,46.4,15.1,30.56,ENE,60,0.0,0.0,28,0.00,,,0.00,WeatherCatV1.23B14,2013-10-30 21:58:00,
2013-10-30 15:03:00,46.4,14.3,30.56,ENE,60,0.0,0.0,27,0.00,,,0.00,WeatherCatV1.23B14,2013-10-30 22:03:00,
2013-10-30 15:08:00,46.2,14.9,30.56,ENE,60,0.0,0.0,28,0.00,,,0.00,WeatherCatV1.23B14,2013-10-30 22:08:00,
2013-10-30 15:13:00,46.0,14.8,30.56,ENE,60,0.0,0.0,28,0.00,,,0.00,WeatherCatV1.23B14,2013-10-30 22:13:00,
2013-10-30 15:18:00,46.0,14.8,30.56,ENE,60,0.0,0.0,28,0.00,,,0.00,WeatherCatV1.23B14,2013-10-30 22:18:00,
2013-10-30 15:23:00,46.0,14.8,30.56,ENE,60,0.0,0.0,28,0.00,,,0.00,WeatherCatV1.23B14,2013-10-30 22:23:00,
2013-10-30 15:28:00,46.0,14.8,30.56,ENE,61,0.0,0.0,28,0.00,,,0.00,WeatherCatV1.23B14,2013-10-30 22:28:00,
2013-10-30 15:33:00,46.0,14.8,30.56,ENE,61,0.0,0.0,28,0.00,,,0.00,WeatherCatV1.23B14,2013-10-30 22:33:00,
2013-10-30 15:38:00,46.2,14.9,30.56,ENE,60,0.0,0.0,28,0.00,,,0.00,WeatherCatV1.23B14,2013-10-30 22:38:00,
2013-10-30 15:43:00,46.0,14.8,30.56,ENE,61,0.0,0.0,28,0.00,,,0.00,WeatherCatV1.23B14,2013-10-30 22:43:00,
2013-10-30 15:48:00,45.7,14.5,30.56,ENE,60,0.0,0.0,28,0.00,,,0.00,WeatherCatV1.23B14,2013-10-30 22:48:00,
2013-10-30 15:53:00,45.5,14.3,30.56,ENE,60,0.0,0.0,28,0.00,,,0.00,WeatherCatV1.23B14,2013-10-30 22:53:00,
2013-10-30 15:58:00,45.5,14.3,30.56,ENE,61,0.0,0.0,28,0.00,,,0.00,WeatherCatV1.23B14,2013-10-30 22:58:00,
2013-10-30 16:03:00,45.5,14.3,30.56,ENE,60,0.0,0.0,28,0.00,,,0.00,WeatherCatV1.23B14,2013-10-30 23:03:00,
2013-10-30 16:08:00,45.7,14.5,30.56,ENE,60,0.0,0.0,28,0.00,,,0.00,WeatherCatV1.23B14,2013-10-30 23:08:00,
2013-10-30 16:13:00,45.7,14.5,30.56,ENE,60,0.0,0.0,28,0.00,,,0.00,WeatherCatV1.23B14,2013-10-30 23:13:00,
2013-10-30 16:18:00,45.7,14.5,30.56,ENE,61,0.0,0.0,28,0.00,,,0.00,WeatherCatV1.23B14,2013-10-30 23:18:00,
2013-10-30 16:23:00,45.5,14.3,30.56,ENE,60,0.0,0.0,28,0.00,,,0.00,WeatherCatV1.23B14,2013-10-30 23:23:00,
2013-10-30 16:28:00,45.3,14.2,30.56,ENE,61,0.0,0.0,28,0.00,,,0.00,WeatherCatV1.23B14,2013-10-30 23:28:00,
2013-10-30 16:33:00,45.1,14.0,30.56,ENE,61,0.0,0.0,28,0.00,,,0.00,WeatherCatV1.23B14,2013-10-30 23:33:00,
2013-10-30 16:38:00,45.0,13.9,30.56,ENE,60,0.0,0.0,28,0.00,,,0.00,WeatherCatV1.23B14,2013-10-30 23:38:00,
2013-10-30 16:43:00,44.6,13.5,30.56,ENE,61,0.0,0.0,28,0.00,,,0.00,WeatherCatV1.23B14,2013-10-30 23:43:00,
2013-10-30 16:48:00,44.6,13.5,30.56,ENE,60,0.0,0.0,28,0.00,,,0.00,WeatherCatV1.23B14,2013-10-30 23:48:00,
2013-10-30 16:53:00,44.2,14.0,30.56,ENE,60,0.0,0.0,29,0.00,,,0.00,WeatherCatV1.23B14,2013-10-30 23:53:00,
2013-10-30 16:58:00,44.2,14.0,30.56,ENE,60,0.0,0.0,29,0.00,,,0.00,WeatherCatV1.23B14,2013-10-30 23:58:00,
2013-10-30 17:03:00,43.9,14.5,30.59,ENE,60,0.0,0.0,30,0.00,,,0.00,WeatherCatV1.23B14,2013-10-31 00:03:00,
2013-10-30 17:08:00,43.5,14.2,30.59,ENE,60,0.0,0.0,30,0.00,,,0.00,WeatherCatV1.23B14,2013-10-31 00:08:00,
2013-10-30 17:13:00,43.2,13.9,30.59,ENE,60,0.0,0.0,30,0.00,,,0.00,WeatherCatV1.23B14,2013-10-31 00:13:00,
2013-10-30 17:18:00,43.0,14.4,30.56,ENE,60,0.0,0.0,31,0.00,,,0.00,WeatherCatV1.23B14,2013-10-31 00:18:00,
2013-10-30 17:23:00,42.4,14.0,30.56,ENE,60,0.0,0.0,31,0.00,,,0.00,WeatherCatV1.23B14,2013-10-31 00:23:00,
2013-10-30 17:28:00,41.7,14.1,30.56,ENE,61,0.0,0.0,32,0.00,,,0.00,WeatherCatV1.23B14,2013-10-31 00:28:00,
2013-10-30 17:33:00,41.0,14.1,30.59,ENE,61,0.0,0.0,33,0.00,,,0.00,WeatherCatV1.23B14,2013-10-31 00:33:00,
2013-10-30 17:38:00,40.3,14.2,30.59,ENE,61,0.0,0.0,34,0.00,,,0.00,WeatherCatV1.23B14,2013-10-31 00:38:00,
2013-10-30 17:43:00,39.6,14.2,30.59,ENE,60,0.0,0.0,35,0.00,,,0.00,WeatherCatV1.23B14,2013-10-31 00:43:00,
2013-10-30 17:48:00,39.0,14.4,30.59,ENE,60,0.0,0.0,36,0.00,,,0.00,WeatherCatV1.23B14,2013-10-31 00:48:00,
2013-10-30 17:53:00,38.7,14.7,30.59,ENE,60,0.0,0.0,37,0.00,,,0.00,WeatherCatV1.23B14,2013-10-31 00:53:00,
2013-10-30 17:58:00,38.3,14.9,30.59,ENE,60,0.0,0.0,38,0.00,,,0.00,WeatherCatV1.23B14,2013-10-31 00:58:00,
2013-10-30 18:03:00,38.1,14.8,30.59,ENE,61,0.0,0.0,38,0.00,,,0.00,WeatherCatV1.23B14,2013-10-31 01:03:00,
2013-10-30 18:08:00,37.6,14.9,30.59,ENE,60,0.0,0.0,39,0.00,,,0.00,WeatherCatV1.23B14,2013-10-31 01:08:00,
2013-10-30 18:13:00,37.4,14.7,30.59,ENE,61,0.0,0.0,39,0.00,,,0.00,WeatherCatV1.23B14,2013-10-31 01:13:00,
2013-10-30 18:18:00,37.6,14.9,30.56,ENE,60,0.0,0.0,39,0.00,,,0.00,WeatherCatV1.23B14,2013-10-31 01:18:00,
2013-10-30 18:23:00,37.4,14.7,30.56,ENE,60,0.0,0.0,39,0.00,,,0.00,WeatherCatV1.23B14,2013-10-31 01:23:00,
2013-10-30 18:28:00,37.0,15.0,30.56,ENE,60,0.0,0.0,40,0.00,,,0.00,WeatherCatV1.23B14,2013-10-31 01:28:00,
2013-10-30 18:33:00,37.0,15.0,30.59,ENE,60,0.0,0.0,40,0.00,,,0.00,WeatherCatV1.23B14,2013-10-31 01:33:00,
2013-10-30 18:38:00,37.0,15.0,30.59,ENE,60,0.0,0.0,40,0.00,,,0.00,WeatherCatV1.23B14,2013-10-31 01:38:00,
2013-10-30 18:43:00,36.7,14.7,30.59,ENE,60,0.0,0.0,40,0.00,,,0.00,WeatherCatV1.23B14,2013-10-31 01:43:00,
2013-10-30 18:48:00,36.7,14.7,30.59,ENE,60,0.0,0.0,40,0.00,,,0.00,WeatherCatV1.23B14,2013-10-31 01:48:00,
2013-10-30 18:53:00,36.7,14.7,30.59,ENE,61,0.0,0.0,40,0.00,,,0.00,WeatherCatV1.23B14,2013-10-31 01:53:00,
2013-10-30 18:58:00,36.5,14.5,30.59,ENE,60,0.0,0.0,40,0.00,,,0.00,WeatherCatV1.23B14,2013-10-31 01:58:00,
2013-10-30 19:03:00,36.3,14.3,30.59,ENE,60,0.0,0.0,40,0.00,,,0.00,WeatherCatV1.23B14,2013-10-31 02:03:00,
2013-10-30 19:08:00,36.3,14.3,30.59,ENE,60,0.0,0.0,40,0.00,,,0.00,WeatherCatV1.23B14,2013-10-31 02:08:00,
2013-10-30 19:13:00,36.1,14.2,30.59,ENE,60,0.0,0.0,40,0.00,,,0.00,WeatherCatV1.23B14,2013-10-31 02:13:00,
2013-10-30 19:18:00,36.1,14.2,30.56,ENE,61,0.0,0.0,40,0.00,,,0.00,WeatherCatV1.23B14,2013-10-31 02:18:00,
2013-10-30 19:23:00,36.7,14.7,30.56,ENE,61,0.0,0.0,40,0.00,,,0.00,WeatherCatV1.23B14,2013-10-31 02:23:00,
2013-10-30 19:28:00,36.7,14.7,30.56,ENE,60,0.0,0.0,40,0.00,,,0.00,WeatherCatV1.23B14,2013-10-31 02:28:00,
2013-10-30 19:33:00,36.5,14.5,30.59,ENE,61,0.0,0.0,40,0.00,,,0.00,WeatherCatV1.23B14,2013-10-31 02:33:00,
2013-10-30 19:38:00,36.7,14.7,30.59,ENE,60,0.0,0.0,40,0.00,,,0.00,WeatherCatV1.23B14,2013-10-31 02:38:00,
2013-10-30 19:43:00,36.5,14.5,30.59,ENE,60,0.0,0.0,40,0.00,,,0.00,WeatherCatV1.23B14,2013-10-31 02:43:00,
2013-10-30 19:48:00,36.3,14.9,30.59,ENE,60,0.0,0.0,41,0.00,,,0.00,WeatherCatV1.23B14,2013-10-31 02:48:00,
2013-10-30 19:53:00,36.3,14.9,30.59,ENE,60,0.0,0.0,41,0.00,,,0.00,WeatherCatV1.23B14,2013-10-31 02:53:00,
2013-10-30 19:58:00,36.3,14.9,30.59,ENE,61,0.0,0.0,41,0.00,,,0.00,WeatherCatV1.23B14,2013-10-31 02:58:00,
2013-10-30 20:00:00,36.3,14.9,30.59,ENE,60,0.0,0.0,41,0.00,,,0.00,WeatherCatV1.23B14,2013-10-31 03:00:00,
2013-10-30 20:05:00,35.8,14.4,30.59,ENE,60,0.0,0.0,41,0.00,,,0.00,WeatherCatV1.23B14,2013-10-31 03:05:00,
2013-10-30 20:10:00,35.2,13.9,30.59,ENE,60,0.0,0.0,41,0.00,,,0.00,WeatherCatV1.23B14,2013-10-31 03:10:00,
2013-10-30 20:15:00,35.1,14.3,30.59,ENE,60,0.0,0.0,42,0.00,,,0.00,WeatherCatV1.23B14,2013-10-31 03:15:00,
2013-10-30 20:20:00,35.1,14.3,30.59,ENE,61,0.0,0.0,42,0.00,,,0.00,WeatherCatV1.23B14,2013-10-31 03:20:00,
2013-10-30 20:25:00,35.4,14.6,30.59,ENE,61,0.0,0.0,42,0.00,,,0.00,WeatherCatV1.23B14,2013-10-31 03:25:00,
2013-10-30 20:30:00,35.4,14.6,30.59,ENE,61,0.0,0.0,42,0.00,,,0.00,WeatherCatV1.23B14,2013-10-31 03:30:00,
2013-10-30 20:35:00,35.1,14.3,30.56,ENE,60,0.0,0.0,42,0.00,,,0.00,WeatherCatV1.23B14,2013-10-31 03:35:00,
2013-10-30 20:40:00,34.9,14.7,30.56,ENE,60,0.0,0.0,43,0.00,,,0.00,WeatherCatV1.23B14,2013-10-31 03:40:00,
2013-10-30 20:45:00,34.3,14.2,30.56,ENE,60,0.0,0.0,43,0.00,,,0.00,WeatherCatV1.23B14,2013-10-31 03:45:00,
2013-10-30 20:50:00,34.5,14.9,30.59,ENE,61,0.0,0.0,44,0.00,,,0.00,WeatherCatV1.23B14,2013-10-31 03:50:00,
2013-10-30 20:55:00,34.5,14.9,30.59,ENE,60,0.0,0.0,44,0.00,,,0.00,WeatherCatV1.23B14,2013-10-31 03:55:00,
2013-10-30 21:00:00,34.3,14.7,30.59,ENE,60,0.0,0.0,44,0.00,,,0.00,WeatherCatV1.23B14,2013-10-31 04:00:00,
2013-10-30 21:01:00,34.3,14.7,30.59,ENE,60,0.0,0.0,44,0.00,,,0.00,WeatherCatV1.23B14,2013-10-31 04:01:00,
2013-10-30 21:02:00,34.3,14.7,30.59,ENE,60,0.0,0.0,44,0.00,,,0.00,WeatherCatV1.23B14,2013-10-31 04:02:00,
2013-10-30 21:07:00,34.0,14.4,30.59,ENE,60,0.0,0.0,44,0.00,,,0.00,WeatherCatV1.23B14,2013-10-31 04:07:00,
2013-10-30 21:11:00,33.8,14.2,30.59,ENE,60,0.0,0.0,44,0.00,,,0.00,WeatherCatV1.23B14,2013-10-31 04:11:00,
2013-10-30 21:16:00,33.6,14.6,30.59,ENE,61,0.0,0.0,45,0.00,,,0.00,WeatherCatV1.23B14,2013-10-31 04:16:00,
2013-10-30 21:21:00,33.3,14.7,30.59,ENE,60,0.0,0.0,46,0.00,,,0.00,WeatherCatV1.23B14,2013-10-31 04:21:00,
2013-10-30 21:27:00,33.1,15.1,30.59,ENE,61,0.0,0.0,47,0.00,,,0.00,WeatherCatV1.23B14,2013-10-31 04:27:00,
2013-10-30 21:32:00,32.9,14.9,30.59,ENE,60,0.0,0.0,47,0.00,,,0.00,WeatherCatV1.23B14,2013-10-31 04:32:00,
2013-10-30 21:36:00,32.7,15.2,30.59,ENE,61,0.0,0.0,48,0.00,,,0.00,WeatherCatV1.23B14,2013-10-31 04:36:00,
2013-10-30 21:41:00,32.5,15.5,30.59,ENE,60,0.0,0.0,49,0.00,,,0.00,WeatherCatV1.23B14,2013-10-31 04:41:00,
2013-10-30 21:47:00,32.2,15.7,30.59,ENE,60,0.0,0.0,50,0.00,,,0.00,WeatherCatV1.23B14,2013-10-31 04:47:00,
2013-10-30 21:52:00,32.2,16.1,30.59,ENE,60,0.0,0.0,51,0.00,,,0.00,WeatherCatV1.23B14,2013-10-31 04:52:00,
2013-10-30 21:57:00,32.4,16.3,30.59,ENE,60,0.0,0.0,51,0.00,,,0.00,WeatherCatV1.23B14,2013-10-31 04:57:00,
2013-10-30 22:02:00,32.2,16.1,30.59,ENE,60,0.0,0.0,51,0.00,,,0.00,WeatherCatV1.23B14,2013-10-31 05:02:00,
2013-10-30 22:07:00,32.2,16.1,30.59,ENE,60,0.0,0.0,51,0.00,,,0.00,WeatherCatV1.23B14,2013-10-31 05:07:00,
2013-10-30 22:12:00,32.0,15.9,30.59,ENE,60,0.0,0.0,51,0.00,,,0.00,WeatherCatV1.23B14,2013-10-31 05:12:00,
2013-10-30 22:16:00,31.8,15.8,30.56,ENE,60,0.0,0.0,51,0.00,,,0.00,WeatherCatV1.23B14,2013-10-31 05:16:00,
2013-10-30 22:21:00,31.6,16.1,30.56,ENE,60,0.0,0.0,52,0.00,,,0.00,WeatherCatV1.23B14,2013-10-31 05:21:00,
2013-10-30 22:27:00,31.8,16.2,30.56,ENE,60,0.0,0.0,52,0.00,,,0.00,WeatherCatV1.23B14,2013-10-31 05:27:00,
2013-10-30 22:32:00,32.0,16.4,30.56,ENE,60,0.0,0.0,52,0.00,,,0.00,WeatherCatV1.23B14,2013-10-31 05:32:00,
2013-10-30 22:37:00,31.6,16.1,30.59,ENE,60,0.0,0.0,52,0.00,,,0.00,WeatherCatV1.23B14,2013-10-31 05:37:00,
2013-10-30 22:42:00,31.6,16.1,30.59,ENE,61,0.0,0.0,52,0.00,,,0.00,WeatherCatV1.23B14,2013-10-31 05:42:00,
2013-10-30 22:47:00,31.6,16.1,30.59,ENE,60,0.0,0.0,52,0.00,,,0.00,WeatherCatV1.23B14,2013-10-31 05:47:00,
2013-10-30 22:52:00,31.5,16.3,30.59,ENE,60,0.0,0.0,53,0.00,,,0.00,WeatherCatV1.23B14,2013-10-31 05:52:00,
2013-10-30 22:57:00,31.3,16.2,30.59,ENE,60,0.0,0.0,53,0.00,,,0.00,WeatherCatV1.23B14,2013-10-31 05:57:00,
2013-10-30 23:02:00,31.3,16.2,30.59,ENE,60,0.0,0.0,53,0.00,,,0.00,WeatherCatV1.23B14,2013-10-31 06:02:00,
2013-10-30 23:07:00,31.6,16.5,30.59,ENE,60,0.0,0.0,53,0.00,,,0.00,WeatherCatV1.23B14,2013-10-31 06:07:00,
2013-10-30 23:12:00,32.0,16.8,30.59,ENE,60,0.0,0.0,53,0.00,,,0.00,WeatherCatV1.23B14,2013-10-31 06:12:00,
2013-10-30 23:17:00,32.2,17.0,30.59,ENE,60,0.0,0.0,53,0.00,,,0.00,WeatherCatV1.23B14,2013-10-31 06:17:00,
2013-10-30 23:22:00,32.2,17.0,30.59,ENE,61,0.0,0.0,53,0.00,,,0.00,WeatherCatV1.23B14,2013-10-31 06:22:00,
2013-10-30 23:27:00,32.4,17.2,30.59,ENE,60,0.0,0.0,53,0.00,,,0.00,WeatherCatV1.23B14,2013-10-31 06:27:00,
2013-10-30 23:32:00,32.2,16.6,30.59,ENE,60,0.0,0.0,52,0.00,,,0.00,WeatherCatV1.23B14,2013-10-31 06:32:00,
2013-10-30 23:37:00,31.6,16.1,30.59,ENE,60,0.0,0.0,52,0.00,,,0.00,WeatherCatV1.23B14,2013-10-31 06:37:00,
2013-10-30 23:42:00,31.5,16.3,30.59,ENE,60,0.0,0.0,53,0.00,,,0.00,WeatherCatV1.23B14,2013-10-31 06:42:00,
2013-10-30 23:47:00,31.8,16.7,30.59,ENE,60,0.0,0.0,53,0.00,,,0.00,WeatherCatV1.23B14,2013-10-31 06:47:00,
2013-10-30 23:52:00,32.2,17.0,30.59,ENE,60,0.0,0.0,53,0.00,,,0.00,WeatherCatV1.23B14,2013-10-31 06:52:00,
2013-10-30 23:57:00,32.4,17.2,30.59,ENE,61,0.0,0.0,53,0.00,,,0.00,WeatherCatV1.23B14,2013-10-31 06:57:00,